Terminal Aerodrome Forecast
Issued by NWS

Home | Current Version | Previous Version | Graphics & Text | Print | Product List | Glossary On
Versions: 1 2 3 4 5 6 7 8 9 10 11 12 13 14 15 16 17 18 19 20 21 22 23 24 25 26 27 28 29 30 31 32 33 34 35 36 37 38 39
000
FTUS43 KPAH 261733
TAFOWB
TAF
KOWB 261733Z 2618/2718 21015G25KT P6SM SCT025 BKN050
      TEMPO 2618/2620 -SHRA BKN025
     FM270000 21009KT P6SM SKC
     FM270600 22006KT P6SM BKN250=

USA.gov is the U.S. government's official web portal to all federal, state and local government web resources and services.